Time;durP1;ratioP1;P1;durP2;ratioP2;P2;SDS_P1;SDS_P2;PMS_P1;PMS_P2;Temp;Humidity;BMP_temperature;BMP_pressure;BME280_temperature;BME280_humidity;BME280_pressure;Samples;Min_cycle;Max_cycle;Signal;HPM_P1;HPM_P2
2021/01/20 00:01:41;;;;;;;8.35;2.50;;;;;;;11.09;53.65;102109.22;5031042;28;20076;-62
2021/01/20 00:04:07;;;;;;;10.68;2.80;;;;;;;11.10;54.13;102109.25;5031794;28;20121;-63
2021/01/20 00:06:32;;;;;;;4.05;1.50;;;;;;;11.07;53.75;102116.19;5031469;28;20049;-63
2021/01/20 00:08:58;;;;;;;4.35;1.40;;;;;;;11.07;54.34;102129.41;5031613;28;20142;-63
2021/01/20 00:11:25;;;;;;;13.00;1.67;;;;;;;11.05;53.35;102120.50;5031747;28;20509;-63
2021/01/20 00:13:50;;;;;;;7.97;1.58;;;;;;;11.02;53.58;102126.59;5046516;28;20049;-63
2021/01/20 00:16:16;;;;;;;8.93;1.35;;;;;;;10.95;53.72;102121.94;5031162;28;20094;-63
2021/01/20 00:18:41;;;;;;;8.18;1.67;;;;;;;10.91;53.82;102127.94;5031010;28;20033;-63
2021/01/20 00:21:06;;;;;;;12.40;1.50;;;;;;;10.89;53.28;102132.28;5030043;28;20230;-63
2021/01/20 00:23:32;;;;;;;11.07;1.15;;;;;;;10.83;52.88;102129.38;5030932;28;20041;-63
2021/01/20 00:25:57;;;;;;;4.80;0.90;;;;;;;10.82;53.39;102127.63;5031420;28;20399;-63
2021/01/20 00:28:23;;;;;;;4.72;0.90;;;;;;;10.79;52.93;102122.22;5029674;28;20119;-63
2021/01/20 00:30:48;;;;;;;7.28;1.08;;;;;;;10.77;53.11;102124.78;5039113;28;20044;-63
2021/01/20 00:33:13;;;;;;;7.55;1.48;;;;;;;10.79;53.10;102120.47;5028482;28;20034;-63
2021/01/20 00:35:39;;;;;;;6.43;1.33;;;;;;;10.84;52.68;102128.56;5030750;28;20034;-63
2021/01/20 00:38:04;;;;;;;4.95;1.40;;;;;;;10.87;52.42;102126.03;5030877;28;20036;-64
2021/01/20 00:40:29;;;;;;;4.55;1.35;;;;;;;10.85;52.64;102129.44;5031344;28;20551;-63
2021/01/20 00:42:55;;;;;;;5.90;2.00;;;;;;;10.83;52.87;102126.75;5030378;28;20038;-63
2021/01/20 00:45:20;;;;;;;13.60;1.30;;;;;;;10.83;52.35;102131.16;5031302;28;20124;-63
2021/01/20 00:47:45;;;;;;;5.40;1.15;;;;;;;10.83;52.68;102132.03;5030280;28;20045;-63
2021/01/20 00:50:11;;;;;;;9.10;1.52;;;;;;;10.82;52.00;102135.53;5030863;28;20036;-63
2021/01/20 00:52:36;;;;;;;7.97;1.45;;;;;;;10.82;52.41;102140.84;5029807;28;20042;-63
2021/01/20 00:55:02;;;;;;;7.75;1.40;;;;;;;10.78;51.92;102133.63;5031046;28;20041;-63
2021/01/20 00:57:28;;;;;;;11.50;2.13;;;;;;;10.73;51.75;102136.09;5030863;28;20049;-63
2021/01/20 00:59:53;;;;;;;11.10;1.15;;;;;;;10.70;52.55;102148.28;5030165;28;20045;-63
2021/01/20 01:02:18;;;;;;;8.73;1.30;;;;;;;10.66;52.30;102144.63;5030487;28;20250;-63
2021/01/20 01:04:44;;;;;;;8.80;1.50;;;;;;;10.64;52.05;102138.38;5029770;28;20499;-63
2021/01/20 01:07:09;;;;;;;8.32;1.40;;;;;;;10.67;51.99;102145.53;5029106;28;20038;-63
2021/01/20 01:09:36;;;;;;;4.97;1.30;;;;;;;10.68;52.31;102147.34;5029480;28;20080;-62
2021/01/20 01:12:01;;;;;;;6.97;1.38;;;;;;;10.68;51.73;102144.69;5030626;28;20095;-65
2021/01/20 01:14:27;;;;;;;16.98;1.55;;;;;;;10.69;51.92;102138.56;5044921;28;20041;-63
2021/01/20 01:16:52;;;;;;;6.00;1.42;;;;;;;10.71;51.55;102148.34;5029718;28;20048;-63
2021/01/20 01:19:18;;;;;;;10.73;1.60;;;;;;;10.77;51.69;102137.09;5030057;28;20120;-63
2021/01/20 01:21:43;;;;;;;9.65;2.03;;;;;;;10.84;52.07;102143.50;5030056;28;20037;-63
2021/01/20 01:24:08;;;;;;;6.82;1.58;;;;;;;10.88;52.46;102156.91;5030127;28;20128;-63
2021/01/20 01:26:34;;;;;;;10.20;1.42;;;;;;;10.89;52.47;102148.13;5029290;28;20045;-63
2021/01/20 01:28:59;;;;;;;15.95;1.42;;;;;;;10.87;51.98;102154.19;5045936;28;20033;-63
2021/01/20 01:31:24;;;;;;;16.20;1.10;;;;;;;10.87;52.27;102159.47;5030365;28;20100;-63
2021/01/20 01:33:50;;;;;;;5.45;1.33;;;;;;;10.87;52.05;102156.84;5029606;28;20052;-63
2021/01/20 01:36:15;;;;;;;9.88;1.02;;;;;;;10.86;51.46;102158.56;5029858;28;20057;-63
2021/01/20 01:38:40;;;;;;;5.15;0.70;;;;;;;10.86;51.36;102162.97;5028201;28;20045;-63
2021/01/20 01:41:06;;;;;;;5.10;1.55;;;;;;;10.85;51.50;102161.16;5029312;28;20045;-62
2021/01/20 01:43:31;;;;;;;8.55;1.67;;;;;;;10.83;50.47;102163.72;5029811;28;20041;-63
2021/01/20 01:45:57;;;;;;;5.43;2.08;;;;;;;10.82;50.66;102147.84;5038527;28;20042;-63
2021/01/20 01:48:22;;;;;;;9.15;2.25;;;;;;;10.80;50.61;102155.72;5014484;28;20069;-63
2021/01/20 01:50:47;;;;;;;3.33;1.00;;;;;;;10.78;50.11;102160.94;5009846;28;20057;-63
2021/01/20 01:53:13;;;;;;;6.25;1.00;;;;;;;10.77;50.40;102168.78;5009952;28;20533;-63
2021/01/20 01:55:38;;;;;;;2.42;0.80;;;;;;;10.77;49.93;102169.69;5026213;28;20128;-63
2021/01/20 01:58:03;;;;;;;5.63;0.98;;;;;;;10.74;50.37;102166.06;5029442;28;20452;-63
2021/01/20 02:00:29;;;;;;;5.47;1.23;;;;;;;10.72;50.38;102162.44;5029800;28;20245;-63
2021/01/20 02:02:54;;;;;;;6.07;1.20;;;;;;;10.69;50.31;102175.56;5026298;28;20046;-63
2021/01/20 02:05:19;;;;;;;5.80;1.17;;;;;;;10.65;49.91;102170.97;5007533;28;20107;-63
2021/01/20 02:07:45;;;;;;;4.55;1.00;;;;;;;10.60;49.89;102165.53;5009762;28;20539;-63
2021/01/20 02:10:10;;;;;;;9.93;1.48;;;;;;;10.61;50.47;102167.34;5010133;28;20571;-63
2021/01/20 02:12:35;;;;;;;5.10;1.30;;;;;;;10.64;50.25;102159.50;5009929;28;20037;-63
2021/01/20 02:15:01;;;;;;;3.55;1.42;;;;;;;10.67;50.19;102171.94;5010136;28;20042;-63
2021/01/20 02:17:26;;;;;;;2.90;1.20;;;;;;;10.70;50.05;102162.38;5012115;28;20042;-63
2021/01/20 02:19:52;;;;;;;8.13;1.65;;;;;;;10.75;50.31;102166.13;5023499;28;20056;-63
2021/01/20 02:22:17;;;;;;;5.60;1.88;;;;;;;10.80;50.77;102171.56;5033887;28;20032;-63
2021/01/20 02:24:42;;;;;;;6.28;1.67;;;;;;;10.88;50.46;102159.53;5032935;28;20042;-63
2021/01/20 02:27:08;;;;;;;8.38;2.17;;;;;;;10.94;50.73;102161.50;5033746;28;20115;-63
2021/01/20 02:29:33;;;;;;;6.68;1.60;;;;;;;11.01;50.96;102159.16;5032927;28;20080;-63
2021/01/20 02:31:58;;;;;;;14.23;1.92;;;;;;;11.06;50.39;102154.00;5033560;28;20033;-63
2021/01/20 02:34:24;;;;;;;14.00;1.33;;;;;;;11.08;51.22;102168.19;5033514;28;20144;-62
2021/01/20 02:36:49;;;;;;;9.55;1.42;;;;;;;11.09;50.71;102170.88;5033036;28;20457;-63
2021/01/20 02:39:14;;;;;;;7.50;2.30;;;;;;;11.10;50.89;102170.03;5031831;28;20041;-63
2021/01/20 02:41:40;;;;;;;7.00;2.10;;;;;;;11.13;50.85;102178.09;5033355;28;20034;-63
2021/01/20 02:44:05;;;;;;;6.18;1.55;;;;;;;11.16;50.54;102180.81;5032579;28;20053;-63
2021/01/20 02:46:31;;;;;;;6.20;1.50;;;;;;;11.18;50.42;102178.25;5032106;28;20170;-63
2021/01/20 02:48:56;;;;;;;6.25;2.00;;;;;;;11.18;49.79;102173.84;5025081;28;20045;-63
2021/01/20 02:51:21;;;;;;;6.68;1.13;;;;;;;11.16;50.21;102183.47;5033337;28;20117;-63
2021/01/20 02:53:47;;;;;;;5.47;1.38;;;;;;;11.15;49.81;102186.97;5032548;28;20045;-63
2021/01/20 02:56:12;;;;;;;4.45;1.20;;;;;;;11.14;49.90;102187.81;5030541;28;20403;-63
2021/01/20 02:58:38;;;;;;;6.95;2.65;;;;;;;11.17;49.65;102182.63;5032680;28;20118;-63
2021/01/20 03:01:03;;;;;;;11.10;1.02;;;;;;;11.22;49.67;102177.53;5032560;28;20133;-63
2021/01/20 03:03:28;;;;;;;6.43;1.30;;;;;;;11.26;50.00;102182.06;5048273;28;20052;-63
2021/01/20 03:05:54;;;;;;;4.68;1.27;;;;;;;11.27;49.05;102168.00;5031962;28;20617;-63
2021/01/20 03:08:19;;;;;;;7.65;1.20;;;;;;;11.31;49.70;102169.91;5031482;28;20060;-63
2021/01/20 03:10:44;;;;;;;3.25;1.33;;;;;;;11.34;49.67;102167.38;5032098;28;20046;-63
2021/01/20 03:13:10;;;;;;;17.00;1.50;;;;;;;11.34;49.63;102174.41;5033013;28;20521;-63
2021/01/20 03:15:35;;;;;;;13.25;1.67;;;;;;;11.33;50.07;102172.59;5032712;28;20129;-63
2021/01/20 03:18:01;;;;;;;7.82;1.40;;;;;;;11.31;49.30;102166.34;5032508;28;20069;-63
2021/01/20 03:20:26;;;;;;;6.80;1.48;;;;;;;11.30;49.50;102170.72;5032350;28;21581;-63
2021/01/20 03:22:51;;;;;;;9.43;1.77;;;;;;;11.33;49.42;102172.59;5032065;28;20089;-63
2021/01/20 03:25:17;;;;;;;9.27;1.63;;;;;;;11.37;50.32;102174.50;5032897;28;20057;-63
2021/01/20 03:27:42;;;;;;;6.95;1.40;;;;;;;11.41;50.21;102158.81;5031085;28;20080;-63
2021/01/20 03:30:07;;;;;;;7.95;1.30;;;;;;;11.43;49.85;102172.06;5032437;28;20042;-63
2021/01/20 03:32:33;;;;;;;10.90;2.72;;;;;;;11.41;49.61;102185.25;5032268;28;20470;-62
2021/01/20 03:34:58;;;;;;;10.13;2.50;;;;;;;11.37;50.26;102191.25;5032292;28;20044;-63
2021/01/20 03:37:23;;;;;;;13.05;2.50;;;;;;;11.30;51.01;102188.34;5037249;28;20461;-63
2021/01/20 03:39:49;;;;;;;12.07;2.13;;;;;;;11.24;50.73;102182.84;5031764;28;20208;-63
2021/01/20 03:42:14;;;;;;;7.10;1.77;;;;;;;11.15;51.71;102196.66;5032373;28;20124;-63
2021/01/20 03:44:39;;;;;;;10.95;2.78;;;;;;;11.06;52.19;102202.50;5030701;28;20045;-63
2021/01/20 03:47:05;;;;;;;15.73;3.70;;;;;;;11.01;52.53;102212.00;5030267;28;20060;-63
2021/01/20 03:49:30;;;;;;;9.38;2.47;;;;;;;10.98;52.65;102205.69;5030803;28;20125;-63
2021/01/20 03:51:56;;;;;;;18.77;2.78;;;;;;;10.97;52.57;102215.34;5030153;28;20061;-62
2021/01/20 03:54:21;;;;;;;6.60;2.13;;;;;;;10.97;52.82;102223.28;5031525;28;20418;-62
2021/01/20 03:56:46;;;;;;;10.27;2.03;;;;;;;11.02;52.39;102229.66;5030694;28;20033;-63
2021/01/20 03:59:12;;;;;;;7.80;2.00;;;;;;;11.05;51.96;102232.38;5030923;28;20052;-63
2021/01/20 04:01:37;;;;;;;5.03;1.50;;;;;;;11.09;52.14;102234.28;5031166;28;20045;-63
2021/01/20 04:04:02;;;;;;;6.05;1.50;;;;;;;11.13;52.49;102241.50;5031421;28;20093;-62
2021/01/20 04:06:28;;;;;;;4.97;1.75;;;;;;;11.17;52.59;102242.50;5031122;28;20048;-63
2021/01/20 04:08:53;;;;;;;4.93;1.40;;;;;;;11.18;51.86;102242.56;5046472;28;20117;-62
2021/01/20 04:11:18;;;;;;;7.88;1.73;;;;;;;11.20;51.89;102245.28;5031788;28;20530;-63
2021/01/20 04:13:44;;;;;;;8.43;2.67;;;;;;;11.21;52.44;102231.22;5046690;28;20038;-62
2021/01/20 04:16:09;;;;;;;7.78;1.70;;;;;;;11.24;52.04;102246.28;5030387;28;20492;-63
2021/01/20 04:18:34;;;;;;;11.68;1.73;;;;;;;11.26;51.82;102242.84;5031346;28;20052;-63
2021/01/20 04:21:00;;;;;;;5.88;1.70;;;;;;;11.29;52.30;102244.72;5031413;28;20041;-63
2021/01/20 04:23:25;;;;;;;8.70;1.65;;;;;;;11.29;52.26;102248.25;5031609;28;20049;-62
2021/01/20 04:25:50;;;;;;;7.47;1.30;;;;;;;11.29;52.56;102247.38;5041283;28;20458;-63
2021/01/20 04:28:16;;;;;;;5.38;1.02;;;;;;;11.30;52.02;102247.41;5024345;28;20037;-63
2021/01/20 04:30:41;;;;;;;6.50;1.30;;;;;;;11.29;51.70;102235.03;5030856;28;20103;-63
2021/01/20 04:33:06;;;;;;;9.00;1.67;;;;;;;11.25;52.26;102250.72;5045137;28;20049;-63
2021/01/20 04:35:32;;;;;;;8.02;1.52;;;;;;;11.19;52.12;102247.03;5030624;28;20525;-63
2021/01/20 04:37:57;;;;;;;6.78;1.55;;;;;;;11.12;52.32;102250.28;5030540;28;20041;-63
2021/01/20 04:40:22;;;;;;;5.75;1.17;;;;;;;11.10;51.67;102261.63;5029818;28;20403;-63
2021/01/20 04:42:48;;;;;;;7.00;1.42;;;;;;;11.09;52.17;102266.00;5030533;28;20083;-63
2021/01/20 04:45:13;;;;;;;5.13;1.38;;;;;;;11.08;52.25;102272.16;5029688;28;20030;-63
2021/01/20 04:47:38;;;;;;;5.40;0.90;;;;;;;11.06;52.13;102265.91;5030774;28;20384;-62
2021/01/20 04:50:04;;;;;;;8.95;1.10;;;;;;;11.04;51.92;102279.91;5029722;28;20030;-63
2021/01/20 04:52:29;;;;;;;7.13;1.75;;;;;;;11.02;51.90;102276.31;5031153;28;20038;-63
2021/01/20 04:54:55;;;;;;;8.93;2.97;;;;;;;11.01;51.88;102282.44;5029035;28;20576;-63
2021/01/20 04:57:21;;;;;;;8.25;2.15;;;;;;;10.99;51.37;102285.00;5030686;28;20052;-63
2021/01/20 04:59:47;;;;;;;6.95;1.25;;;;;;;10.96;51.08;102279.59;5028993;28;20090;-63
2021/01/20 05:02:12;;;;;;;10.82;1.42;;;;;;;10.92;51.75;102288.25;5028903;28;20041;-63
2021/01/20 05:04:39;;;;;;;4.18;1.08;;;;;;;10.89;51.93;102290.81;5030355;28;20192;-63
2021/01/20 05:07:04;;;;;;;4.28;1.00;;;;;;;10.91;51.88;102293.47;5030096;28;20046;-62
2021/01/20 05:09:30;;;;;;;3.80;1.35;;;;;;;10.96;51.16;102302.50;5030515;28;20410;-63
2021/01/20 05:11:55;;;;;;;3.70;0.95;;;;;;;10.97;51.32;102307.81;5030244;28;20414;-63
2021/01/20 05:14:20;;;;;;;19.52;5.97;;;;;;;10.98;51.05;102312.28;5030560;28;20042;-63
2021/01/20 05:16:46;;;;;;;22.77;11.38;;;;;;;11.02;50.98;102313.31;5028538;28;20184;-63
2021/01/20 05:19:11;;;;;;;28.23;8.45;;;;;;;11.05;51.62;102308.13;5040448;28;20038;-64
2021/01/20 05:21:36;;;;;;;5.20;1.52;;;;;;;11.06;50.83;102305.56;5015894;28;20401;-63
2021/01/20 05:24:02;;;;;;;4.75;1.05;;;;;;;11.08;50.63;102309.16;5036999;28;20057;-63
2021/01/20 05:26:27;;;;;;;4.15;1.30;;;;;;;11.12;50.29;102313.72;5029669;28;20053;-62
2021/01/20 05:28:52;;;;;;;5.10;1.30;;;;;;;11.20;51.05;102314.00;5028632;28;20044;-62
2021/01/20 05:31:18;;;;;;;7.70;2.33;;;;;;;11.30;50.43;102320.53;5028726;28;20581;-63
2021/01/20 05:33:43;;;;;;;8.10;4.03;;;;;;;11.37;50.39;102311.97;5029980;28;20037;-63
2021/01/20 05:36:08;;;;;;;11.15;2.10;;;;;;;11.43;50.66;102314.84;5029177;28;20037;-63
2021/01/20 05:38:34;;;;;;;5.88;2.40;;;;;;;11.46;50.56;102313.25;5029285;28;20051;-63
2021/01/20 05:40:59;;;;;;;41.50;15.98;;;;;;;11.52;50.27;102323.13;5029458;28;20621;-63
2021/01/20 05:43:24;;;;;;;10.07;4.25;;;;;;;11.54;49.68;102318.81;5029634;28;20049;-65
2021/01/20 05:45:50;;;;;;;11.55;3.28;;;;;;;11.56;49.92;102322.38;5029793;28;20686;-63
2021/01/20 05:48:15;;;;;;;8.73;3.92;;;;;;;11.53;50.31;102312.63;5029577;28;20048;-63
2021/01/20 05:50:41;;;;;;;8.48;3.47;;;;;;;11.49;50.07;102320.38;5028271;28;20103;-63
2021/01/20 05:53:06;;;;;;;11.02;3.28;;;;;;;11.46;49.67;102323.81;5031344;28;20393;-63
2021/01/20 05:55:31;;;;;;;8.18;2.00;;;;;;;11.44;50.47;102325.50;5033544;28;20038;-63
2021/01/20 05:57:57;;;;;;;7.07;1.90;;;;;;;11.47;50.31;102335.28;5029658;28;20045;-63
2021/01/20 06:00:23;;;;;;;5.95;2.30;;;;;;;11.57;49.53;102342.72;5028316;28;20052;-63
2021/01/20 06:02:48;;;;;;;8.00;2.88;;;;;;;11.68;49.17;102338.75;5021852;28;20056;-63
2021/01/20 06:05:13;;;;;;;19.80;6.70;;;;;;;11.77;49.46;102339.09;5045514;28;20037;-63
2021/01/20 06:07:39;;;;;;;11.88;5.45;;;;;;;11.84;49.75;102340.22;5044341;28;20119;-63
2021/01/20 06:10:04;;;;;;;35.20;13.13;;;;;;;11.92;49.02;102338.75;5031924;28;20065;-63
2021/01/20 06:12:30;;;;;;;20.33;6.45;;;;;;;12.02;49.70;102343.50;5039328;28;20433;-63
2021/01/20 06:14:55;;;;;;;15.30;4.28;;;;;;;12.29;49.53;102343.53;5014824;28;20053;-63
2021/01/20 06:17:20;;;;;;;25.58;7.40;;;;;;;12.41;49.26;102351.91;5027264;28;20053;-64
2021/01/20 06:19:46;;;;;;;19.58;7.55;;;;;;;12.42;49.10;102344.84;5011046;28;20508;-63
2021/01/20 06:22:11;;;;;;;23.45;9.10;;;;;;;12.39;50.01;102345.69;5028741;28;20037;-63
2021/01/20 06:24:37;;;;;;;20.05;6.22;;;;;;;12.36;49.29;102349.13;5044948;28;20088;-63
2021/01/20 06:27:02;;;;;;;17.17;6.57;;;;;;;12.36;50.10;102348.22;5026307;28;20050;-63
2021/01/20 06:29:27;;;;;;;17.10;3.90;;;;;;;12.37;50.05;102366.81;5011178;28;20042;-63
2021/01/20 06:31:53;;;;;;;18.75;5.72;;;;;;;12.36;50.08;102375.59;5012077;28;20412;-63
2021/01/20 06:34:18;;;;;;;17.75;6.30;;;;;;;12.37;49.72;102388.00;5039510;28;20038;-64
2021/01/20 06:36:43;;;;;;;17.50;5.40;;;;;;;12.41;50.17;102399.56;5023477;28;20124;-64
2021/01/20 06:39:09;;;;;;;20.50;6.50;;;;;;;12.44;49.92;102407.66;5020314;28;20045;-64
2021/01/20 06:41:34;;;;;;;13.40;5.22;;;;;;;12.50;49.85;102413.16;5025774;28;20030;-64
2021/01/20 06:43:59;;;;;;;8.18;3.40;;;;;;;12.57;50.27;102409.88;5028267;28;20049;-65
2021/01/20 06:46:25;;;;;;;13.18;6.65;;;;;;;12.64;51.10;102411.88;5041183;28;20091;-64
2021/01/20 06:48:51;;;;;;;15.32;7.50;;;;;;;12.74;50.90;102429.88;5014752;28;20713;-65
2021/01/20 06:51:16;;;;;;;16.20;6.93;;;;;;;12.90;50.57;102425.09;5029613;28;20029;-65
2021/01/20 06:53:42;;;;;;;15.88;5.78;;;;;;;12.97;50.61;102433.28;5029316;28;20124;-64
2021/01/20 06:56:07;;;;;;;7.22;2.78;;;;;;;12.98;51.18;102427.16;5029361;28;20411;-64
2021/01/20 06:58:33;;;;;;;14.02;2.90;;;;;;;12.98;50.75;102429.78;5029043;28;20090;-64
2021/01/20 07:00:58;;;;;;;7.05;3.80;;;;;;;12.99;51.20;102438.66;5029318;28;20117;-64
2021/01/20 07:03:23;;;;;;;11.60;4.82;;;;;;;13.05;50.63;102433.53;5039811;28;20133;-64
2021/01/20 07:05:48;;;;;;;5.78;3.08;;;;;;;13.10;51.17;102430.19;5031459;28;20052;-64
2021/01/20 07:08:14;;;;;;;4.57;2.22;;;;;;;13.15;50.75;102427.72;5032950;28;20038;-64
2021/01/20 07:10:39;;;;;;;6.80;2.78;;;;;;;13.18;50.75;102434.88;5047810;28;20053;-64
2021/01/20 07:13:04;;;;;;;16.38;7.15;;;;;;;13.13;50.56;102434.69;5045813;28;20087;-64
2021/01/20 07:15:30;;;;;;;6.60;2.15;;;;;;;13.07;51.13;102445.06;5033085;28;20394;-64
2021/01/20 07:17:55;;;;;;;8.80;3.42;;;;;;;13.07;50.66;102445.97;5031024;28;20052;-64
2021/01/20 07:20:20;;;;;;;5.47;2.63;;;;;;;13.13;50.53;102450.63;5032635;28;20049;-64
2021/01/20 07:22:46;;;;;;;11.38;3.88;;;;;;;13.23;50.41;102452.72;5029779;28;20144;-64
2021/01/20 07:25:11;;;;;;;10.48;4.05;;;;;;;13.49;50.07;102442.94;5013145;28;20048;-64
2021/01/20 07:27:36;;;;;;;12.45;4.82;;;;;;;13.45;50.71;102439.28;5012768;28;20069;-64
2021/01/20 07:30:02;;;;;;;16.38;5.40;;;;;;;13.44;50.10;102444.53;5024560;28;20053;-64
2021/01/20 07:32:27;;;;;;;15.23;5.55;;;;;;;13.56;50.25;102443.16;5032843;28;20410;-64
2021/01/20 07:34:52;;;;;;;7.55;3.65;;;;;;;13.72;50.52;102449.81;5013360;28;20111;-64
2021/01/20 07:37:18;;;;;;;18.50;9.40;;;;;;;13.76;50.25;102445.50;5028121;28;20112;-64
2021/01/20 07:39:43;;;;;;;11.95;4.90;;;;;;;13.69;50.55;102451.50;5020654;28;20034;-64
2021/01/20 07:42:08;;;;;;;12.93;4.47;;;;;;;13.67;50.34;102450.53;5032596;28;20037;-64
2021/01/20 07:44:34;;;;;;;12.75;3.90;;;;;;;13.71;50.51;102458.66;5031566;28;20589;-64
2021/01/20 07:46:59;;;;;;;18.23;4.25;;;;;;;13.82;49.67;102465.19;5032618;28;20037;-64
2021/01/20 07:49:25;;;;;;;8.23;3.45;;;;;;;13.93;49.73;102462.81;5032442;28;20540;-64
2021/01/20 07:51:50;;;;;;;5.90;3.30;;;;;;;13.98;49.93;102461.19;5032074;28;20438;-64
2021/01/20 07:54:15;;;;;;;6.22;2.58;;;;;;;14.21;49.81;102457.47;5025474;28;20188;-65
2021/01/20 07:56:41;;;;;;;13.27;4.28;;;;;;;14.11;49.83;102452.72;5027368;28;20060;-65
2021/01/20 07:59:06;;;;;;;6.72;3.13;;;;;;;14.03;49.94;102471.97;5027611;28;20113;-66
2021/01/20 08:01:31;;;;;;;6.18;2.15;;;;;;;14.12;49.86;102477.53;5013564;28;20172;-64
2021/01/20 08:03:57;;;;;;;9.07;2.50;;;;;;;14.23;49.71;102479.66;5035875;28;20044;-66
2021/01/20 08:06:23;;;;;;;8.38;2.30;;;;;;;14.31;49.42;102491.38;5042767;28;20683;-67
2021/01/20 08:08:48;;;;;;;10.38;5.78;;;;;;;14.32;49.36;102486.97;5023632;28;20044;-66
2021/01/20 08:11:14;;;;;;;8.93;3.40;;;;;;;14.39;49.57;102493.38;5031326;28;20037;-64
2021/01/20 08:13:39;;;;;;;13.65;3.53;;;;;;;14.46;49.66;102506.00;5031162;28;20084;-66
2021/01/20 08:16:04;;;;;;;15.00;3.80;;;;;;;14.49;49.37;102498.13;5031607;28;20064;-62
2021/01/20 08:18:30;;;;;;;11.45;3.95;;;;;;;14.51;49.29;102489.31;5022858;28;20448;-65
2021/01/20 08:20:57;;;;;;;13.60;5.60;;;;;;;14.61;49.37;102493.13;5011734;28;20034;-65
2021/01/20 08:23:22;;;;;;;9.73;3.28;;;;;;;14.74;48.91;102498.81;5017291;28;20054;-65
2021/01/20 08:25:47;;;;;;;10.23;3.83;;;;;;;14.88;49.00;102507.16;5046798;28;20103;-67
2021/01/20 08:28:13;;;;;;;14.30;4.93;;;;;;;14.99;48.94;102510.06;5019393;28;20065;-64
2021/01/20 08:30:38;;;;;;;8.18;3.30;;;;;;;15.15;48.82;102515.84;5024065;28;20037;-66
2021/01/20 08:33:05;;;;;;;10.93;4.85;;;;;;;15.19;48.71;102507.91;5023190;28;20041;-67
2021/01/20 08:35:30;;;;;;;10.90;4.35;;;;;;;15.12;48.67;102499.78;5023547;28;20045;-66
2021/01/20 08:37:56;;;;;;;10.27;4.53;;;;;;;15.08;48.93;102505.00;5018967;28;20050;-69
2021/01/20 08:40:21;;;;;;;27.50;11.75;;;;;;;15.12;48.88;102506.88;5017117;28;20037;-67
2021/01/20 08:42:46;;;;;;;22.38;6.68;;;;;;;15.73;48.22;102505.72;5018510;28;20034;-67
2021/01/20 08:45:12;;;;;;;10.05;4.78;;;;;;;16.05;47.61;102511.72;5026040;28;20041;-65
2021/01/20 08:47:37;;;;;;;8.75;3.20;;;;;;;16.19;47.51;102504.94;5026140;28;20038;-65
2021/01/20 08:50:03;;;;;;;8.52;3.88;;;;;;;16.00;47.77;102505.41;5025742;28;20030;-62
2021/01/20 08:52:28;;;;;;;21.27;12.27;;;;;;;15.80;47.92;102500.56;5030425;28;20069;-64
2021/01/20 08:54:53;;;;;;;11.68;4.55;;;;;;;15.82;48.02;102498.81;5030380;28;20043;-65
2021/01/20 08:57:19;;;;;;;16.33;4.00;;;;;;;15.89;47.49;102498.06;5029377;28;20041;-68
2021/01/20 08:59:44;;;;;;;13.88;4.95;;;;;;;16.22;47.42;102502.31;5029702;28;20402;-64
2021/01/20 09:02:09;;;;;;;15.55;4.65;;;;;;;16.58;46.95;102512.81;5024216;28;20038;-67
2021/01/20 09:04:35;;;;;;;14.00;4.07;;;;;;;16.89;47.09;102514.31;5023067;28;20045;-68
2021/01/20 09:07:00;;;;;;;10.75;3.83;;;;;;;16.79;46.67;102517.69;5034478;28;20505;-68
2021/01/20 09:09:27;;;;;;;7.45;3.22;;;;;;;16.49;46.75;102526.84;5028787;28;20060;-68
2021/01/20 09:11:52;;;;;;;7.63;2.35;;;;;;;16.50;47.22;102522.44;5030399;28;20042;-68
2021/01/20 09:14:17;;;;;;;9.20;2.47;;;;;;;16.65;46.83;102514.78;5029371;28;20044;-68
2021/01/20 09:16:43;;;;;;;6.78;3.03;;;;;;;16.52;46.87;102521.59;5036146;28;20050;-69
2021/01/20 09:19:08;;;;;;;8.15;2.90;;;;;;;16.34;46.99;102516.78;5027344;28;20568;-69
2021/01/20 09:21:33;;;;;;;12.70;4.70;;;;;;;16.32;47.02;102530.97;5019011;28;20069;-66
2021/01/20 09:23:59;;;;;;;8.27;4.55;;;;;;;16.41;46.96;102535.59;5021449;28;20060;-66
2021/01/20 09:26:24;;;;;;;7.05;2.30;;;;;;;16.45;47.20;102525.00;5030903;28;20042;-66
2021/01/20 09:28:49;;;;;;;5.60;2.78;;;;;;;16.40;46.71;102529.38;5049737;28;20045;-67
2021/01/20 09:31:15;;;;;;;16.00;3.10;;;;;;;16.49;46.95;102528.63;5030104;28;20038;-68
2021/01/20 09:33:40;;;;;;;9.13;2.47;;;;;;;16.59;46.69;102523.53;5028230;28;20129;-69
2021/01/20 09:36:05;;;;;;;12.73;2.72;;;;;;;16.66;46.78;102525.47;5025598;28;20417;-71
2021/01/20 09:38:31;;;;;;;11.75;2.72;;;;;;;16.65;47.01;102531.66;5025443;28;20035;-69
2021/01/20 09:40:56;;;;;;;138.43;75.55;;;;;;;16.76;46.16;102529.19;5031630;28;20045;-69
2021/01/20 09:43:23;;;;;;;20.65;10.25;;;;;;;17.04;46.21;102522.59;5016484;28;20060;-69
2021/01/20 09:45:48;;;;;;;14.45;8.60;;;;;;;17.10;46.14;102520.03;5002365;28;20054;-70
2021/01/20 09:48:16;;;;;;;6.00;3.67;;;;;;;17.23;46.04;102508.69;5030496;28;20043;-69
2021/01/20 09:50:44;;;;;;;5.20;2.35;;;;;;;17.34;45.39;102508.84;5028646;28;20041;-69
2021/01/20 09:53:10;;;;;;;21.17;5.72;;;;;;;17.08;46.03;102498.63;5025708;28;20394;-70
2021/01/20 09:55:35;;;;;;;7.72;3.05;;;;;;;16.81;46.02;102503.50;5026120;28;20045;-68
2021/01/20 09:58:04;;;;;;;12.32;3.47;;;;;;;16.55;46.34;102497.66;5019653;28;20052;-69
2021/01/20 10:00:29;;;;;;;22.40;11.25;;;;;;;16.66;45.77;102496.13;5020754;28;20041;-69
2021/01/20 10:02:54;;;;;;;6.03;1.98;;;;;;;16.96;45.33;102481.53;5018118;28;20042;-69
2021/01/20 10:05:20;;;;;;;10.85;2.47;;;;;;;17.17;44.87;102471.22;5020788;28;20085;-69
2021/01/20 10:07:45;;;;;;;12.30;3.17;;;;;;;17.28;45.06;102461.59;5037924;28;20038;-69
2021/01/20 10:10:11;;;;;;;5.25;1.80;;;;;;;17.47;44.17;102476.13;5039493;28;20441;-68
2021/01/20 10:12:37;;;;;;;4.55;1.80;;;;;;;17.55;44.28;102487.81;5025221;28;20076;-68
2021/01/20 10:15:02;;;;;;;8.27;2.80;;;;;;;17.62;43.92;102484.38;5021766;28;20045;-69
2021/01/20 10:17:27;;;;;;;8.40;3.28;;;;;;;17.66;44.08;102479.97;5035913;28;20703;-67
2021/01/20 10:19:53;;;;;;;9.43;4.38;;;;;;;17.59;44.13;102473.63;5025835;28;20055;-67
2021/01/20 10:22:19;;;;;;;10.10;3.28;;;;;;;17.58;44.22;102470.94;5029988;28;20117;-67
2021/01/20 10:24:45;;;;;;;5.05;1.75;;;;;;;17.40;44.06;102467.09;5028701;28;20044;-68
2021/01/20 10:27:10;;;;;;;5.80;2.13;;;;;;;17.23;43.80;102467.75;5029843;28;20041;-67
2021/01/20 10:29:35;;;;;;;6.45;2.63;;;;;;;17.10;44.49;102461.31;5029268;28;20048;-66
2021/01/20 10:32:01;;;;;;;4.90;3.03;;;;;;;17.02;44.36;102461.19;5029119;28;20053;-68
2021/01/20 10:34:26;;;;;;;5.68;1.98;;;;;;;16.99;44.39;102454.91;5027386;28;20570;-68
2021/01/20 10:36:52;;;;;;;7.40;2.47;;;;;;;17.02;44.26;102450.50;5028332;28;20029;-67
2021/01/20 10:39:18;;;;;;;4.63;2.08;;;;;;;17.08;44.25;102449.69;5033389;28;20610;-67
2021/01/20 10:41:43;;;;;;;3.00;1.77;;;;;;;17.02;43.95;102461.19;5028261;28;20407;-67
2021/01/20 10:44:08;;;;;;;4.80;2.33;;;;;;;16.98;43.72;102448.69;5033403;28;20042;-67
2021/01/20 10:46:34;;;;;;;14.63;2.10;;;;;;;16.84;44.20;102459.97;5033365;28;20033;-64
2021/01/20 10:48:59;;;;;;;6.10;1.70;;;;;;;16.66;44.73;102457.91;5033359;28;20484;-68
2021/01/20 10:51:24;;;;;;;6.20;2.55;;;;;;;16.53;44.77;102443.41;5033290;28;20041;-67
2021/01/20 10:53:50;;;;;;;8.23;2.75;;;;;;;16.37;44.20;102451.97;5032774;28;20095;-69
2021/01/20 10:56:44;;;;;;;;;;;;;;;16.35;44.59;102446.59;5024256;28;20083;-67
2021/01/20 10:59:10;;;;;;;10.57;2.30;;;;;;;16.23;44.49;102461.47;5039759;28;20365;-68
2021/01/20 11:01:36;;;;;;;3.28;1.40;;;;;;;16.16;44.69;102457.78;5051867;28;20045;-67
2021/01/20 11:04:01;;;;;;;13.07;4.15;;;;;;;16.11;44.69;102454.13;5041811;28;20041;-68
2021/01/20 11:06:27;;;;;;;10.07;3.05;;;;;;;16.09;44.55;102458.53;5032586;28;20469;-68
2021/01/20 11:08:52;;;;;;;4.30;2.53;;;;;;;16.02;44.60;102458.38;5032846;28;20501;-67
2021/01/20 11:11:18;;;;;;;7.43;2.70;;;;;;;15.95;44.63;102458.25;5030993;28;20091;-68
2021/01/20 11:13:43;;;;;;;6.22;3.38;;;;;;;15.97;43.90;102452.97;5031551;28;20049;-67